Time;durP1;ratioP1;P1;durP2;ratioP2;P2;SDS_P1;SDS_P2;PMS_P1;PMS_P2;Temp;Humidity;BMP_temperature;BMP_pressure;BME280_temperature;BME280_humidity;BME280_pressure;Samples;Min_cycle;Max_cycle;Signal;HPM_P1;HPM_P2
2024/03/21 00:00:17;;;;;;;10.52;9.43;;;12.40;99.90;;;;;;5067005;28;20031;-84
2024/03/21 00:02:50;;;;;;;12.15;10.55;;;12.40;99.90;;;;;;5068662;28;20028;-84
2024/03/21 00:05:17;;;;;;;18.13;11.80;;;12.40;99.90;;;;;;5069724;28;20028;-83
2024/03/21 00:07:46;;;;;;;13.20;10.35;;;12.40;99.90;;;;;;5054616;28;20028;-83
2024/03/21 00:10:13;;;;;;;12.95;11.55;;;12.40;99.90;;;;;;5050807;28;20029;-83
2024/03/21 00:12:39;;;;;;;11.48;10.07;;;12.40;99.90;;;;;;5051737;28;20029;-83
2024/03/21 00:15:05;;;;;;;13.18;11.05;;;12.30;99.90;;;;;;5051848;28;20021;-83
2024/03/21 00:17:32;;;;;;;12.50;10.70;;;12.30;99.90;;;;;;5051100;28;20511;-84
2024/03/21 00:19:58;;;;;;;14.98;11.50;;;12.30;99.90;;;;;;5051443;28;20060;-83
2024/03/21 00:22:24;;;;;;;19.20;12.60;;;12.30;99.90;;;;;;5051364;28;20122;-83
2024/03/21 00:24:49;;;;;;;13.75;12.23;;;12.30;99.90;;;;;;5061177;28;20476;-83
2024/03/21 00:27:15;;;;;;;13.77;12.00;;;12.30;99.90;;;;;;5067601;28;20028;-83
2024/03/21 00:29:40;;;;;;;15.43;12.57;;;12.30;99.90;;;;;;5069736;28;20052;-84
2024/03/21 00:32:06;;;;;;;19.50;13.73;;;12.30;99.90;;;;;;5075428;28;20376;-83
2024/03/21 00:34:32;;;;;;;15.75;14.25;;;12.30;99.90;;;;;;5072971;28;20021;-84
2024/03/21 00:36:58;;;;;;;18.83;14.50;;;12.40;99.90;;;;;;5071219;28;20025;-84
2024/03/21 00:39:23;;;;;;;25.05;17.40;;;12.30;99.90;;;;;;5078586;28;20027;-84
2024/03/21 00:41:50;;;;;;;34.13;18.90;;;12.30;99.90;;;;;;5072422;28;20056;-84
2024/03/21 00:44:16;;;;;;;31.13;21.52;;;12.30;99.90;;;;;;5070617;28;20031;-83
2024/03/21 00:46:42;;;;;;;28.83;21.58;;;12.30;99.90;;;;;;5067095;28;20044;-83
2024/03/21 00:49:10;;;;;;;29.73;21.85;;;12.40;99.90;;;;;;5064370;28;20117;-84
2024/03/21 00:51:37;;;;;;;26.02;22.02;;;12.30;99.90;;;;;;5070854;28;20048;-84
2024/03/21 00:54:03;;;;;;;32.03;24.27;;;12.30;99.90;;;;;;5071863;28;20103;-84
2024/03/21 00:56:28;;;;;;;35.08;24.13;;;12.30;99.90;;;;;;5069884;28;20024;-83
2024/03/21 00:58:58;;;;;;;30.38;22.75;;;12.30;99.90;;;;;;5066974;28;20043;-83
2024/03/21 01:01:24;;;;;;;31.10;23.90;;;12.30;99.90;;;;;;5067438;28;20082;-83
2024/03/21 01:03:49;;;;;;;30.45;23.85;;;12.30;99.90;;;;;;5067030;28;20025;-84
2024/03/21 01:06:15;;;;;;;30.83;22.88;;;12.20;99.90;;;;;;5067166;28;20157;-83
2024/03/21 01:08:40;;;;;;;30.10;23.55;;;12.10;99.90;;;;;;5064133;28;20090;-83
2024/03/21 01:11:06;;;;;;;31.02;23.88;;;12.50;99.90;;;;;;5069877;28;20033;-84
2024/03/21 01:13:32;;;;;;;37.03;24.45;;;12.00;99.90;;;;;;5068674;28;20032;-84
2024/03/21 01:15:57;;;;;;;39.30;23.88;;;12.00;99.90;;;;;;5067111;28;20062;-84
2024/03/21 01:18:34;;;;;;;31.02;22.92;;;11.90;99.90;;;;;;5064513;28;20056;-84
2024/03/21 01:21:06;;;;;;;34.63;24.17;;;11.90;99.90;;;;;;5068588;28;20035;-84
2024/03/21 01:23:33;;;;;;;37.63;24.08;;;11.90;99.90;;;;;;5066281;28;20488;-83
2024/03/21 01:25:59;;;;;;;36.33;24.60;;;11.80;99.90;;;;;;5066224;28;20423;-84
2024/03/21 01:28:25;;;;;;;31.80;23.65;;;11.80;99.90;;;;;;5064875;28;20495;-83
2024/03/21 01:30:50;;;;;;;36.55;24.05;;;11.80;99.90;;;;;;5057340;28;20041;-83
2024/03/21 01:33:16;;;;;;;41.13;24.27;;;11.70;99.90;;;;;;5070062;28;20037;-83
2024/03/21 01:35:42;;;;;;;32.78;24.20;;;11.70;99.90;;;;;;5069663;28;20039;-84
2024/03/21 01:38:08;;;;;;;41.13;25.35;;;11.80;99.90;;;;;;5073647;28;20403;-83
2024/03/21 01:40:36;;;;;;;39.03;26.73;;;11.80;99.90;;;;;;5078325;28;20773;-84
2024/03/21 01:43:02;;;;;;;36.85;25.25;;;11.70;99.90;;;;;;5071917;28;20029;-83
2024/03/21 01:45:27;;;;;;;36.03;25.88;;;11.70;99.90;;;;;;5074259;28;20044;-84
2024/03/21 01:47:54;;;;;;;36.22;25.65;;;11.80;99.90;;;;;;5069699;28;20028;-83
2024/03/21 01:50:19;;;;;;;35.40;25.83;;;11.90;99.90;;;;;;5066294;28;20115;-84
2024/03/21 01:52:45;;;;;;;36.28;26.63;;;11.70;99.90;;;;;;5078787;28;20064;-83
2024/03/21 01:55:14;;;;;;;43.58;27.38;;;11.70;99.90;;;;;;5073568;28;20376;-84
2024/03/21 01:57:40;;;;;;;37.80;26.55;;;11.70;99.90;;;;;;5073866;28;20028;-83
2024/03/21 02:00:11;;;;;;;41.17;26.55;;;11.70;99.90;;;;;;5073998;28;20021;-84
2024/03/21 02:02:36;;;;;;;39.03;26.42;;;11.60;99.90;;;;;;5073457;28;20021;-84
2024/03/21 02:05:03;;;;;;;42.42;26.67;;;11.60;99.90;;;;;;5074043;28;20032;-84
2024/03/21 02:07:31;;;;;;;38.83;25.30;;;11.60;99.90;;;;;;5074027;28;20051;-84
2024/03/21 02:09:56;;;;;;;37.88;24.73;;;11.60;99.90;;;;;;5068043;28;20033;-84
2024/03/21 02:12:46;;;;;;;38.42;26.42;;;11.50;99.90;;;;;;5071315;28;20356;-83
2024/03/21 02:15:12;;;;;;;44.30;27.23;;;11.50;99.90;;;;;;5073819;28;20024;-84
2024/03/21 02:17:38;;;;;;;40.92;25.40;;;11.50;99.90;;;;;;5072990;28;20032;-84
2024/03/21 02:20:04;;;;;;;40.63;27.45;;;11.60;99.90;;;;;;5073608;28;20025;-84
2024/03/21 02:22:37;;;;;;;39.75;25.90;;;11.60;99.90;;;;;;5073867;28;20028;-84
2024/03/21 02:25:10;;;;;;;43.92;26.85;;;11.60;99.90;;;;;;5068846;28;20041;-83
2024/03/21 02:27:36;;;;;;;43.83;27.52;;;11.60;99.90;;;;;;5070194;28;20035;-84
2024/03/21 02:30:03;;;;;;;39.05;24.45;;;11.60;99.90;;;;;;5069095;28;20536;-84
2024/03/21 02:32:28;;;;;;;40.28;25.13;;;11.60;99.90;;;;;;5078077;28;20044;-84
2024/03/21 02:34:54;;;;;;;43.63;27.00;;;11.40;99.90;;;;;;5070286;28;20024;-84
2024/03/21 02:37:20;;;;;;;40.65;25.90;;;11.60;99.90;;;;;;5064390;28;20028;-84
2024/03/21 02:39:50;;;;;;;36.80;25.45;;;11.60;99.90;;;;;;5071472;28;20480;-84
2024/03/21 02:42:19;;;;;;;36.13;24.10;;;11.50;99.90;;;;;;5072151;28;20024;-83
2024/03/21 02:44:46;;;;;;;32.38;22.27;;;11.50;99.90;;;;;;5076614;28;20031;-84
2024/03/21 02:47:12;;;;;;;31.38;20.35;;;11.50;99.90;;;;;;5071232;28;20036;-84
2024/03/21 02:49:38;;;;;;;27.05;18.70;;;11.50;99.90;;;;;;5069689;28;20511;-84
2024/03/21 02:52:04;;;;;;;25.80;16.83;;;11.50;99.90;;;;;;5067587;28;20040;-83
2024/03/21 02:54:33;;;;;;;25.65;16.77;;;11.50;99.90;;;;;;5063862;28;20029;-84
2024/03/21 02:56:59;;;;;;;18.33;14.85;;;11.50;99.90;;;;;;5070383;28;20074;-84
2024/03/21 02:59:25;;;;;;;15.93;11.98;;;11.50;99.90;;;;;;5071912;28;20021;-84
2024/03/21 03:01:50;;;;;;;13.68;10.15;;;11.50;99.90;;;;;;5072887;28;20396;-84
2024/03/21 03:04:16;;;;;;;16.73;9.43;;;11.50;99.90;;;;;;5072936;28;20104;-83
2024/03/21 03:06:41;;;;;;;11.43;9.18;;;11.50;99.90;;;;;;5069847;28;20584;-84
2024/03/21 03:09:08;;;;;;;17.05;9.10;;;11.50;99.90;;;;;;5072479;28;20017;-83
2024/03/21 03:11:36;;;;;;;15.57;8.48;;;11.40;99.90;;;;;;5077529;28;20094;-84
2024/03/21 03:14:01;;;;;;;13.63;9.93;;;11.40;99.90;;;;;;5068474;28;20024;-84
2024/03/21 03:16:27;;;;;;;18.85;8.40;;;11.40;99.90;;;;;;5061508;28;20029;-83
2024/03/21 03:18:52;;;;;;;9.57;7.47;;;12.20;99.90;;;;;;5048896;28;20108;-84
2024/03/21 03:21:18;;;;;;;8.18;7.45;;;11.30;99.90;;;;;;5048042;28;20033;-83
2024/03/21 03:23:43;;;;;;;11.30;7.88;;;11.20;99.90;;;;;;5069268;28;20140;-83
2024/03/21 03:26:09;;;;;;;8.75;7.95;;;11.10;99.90;;;;;;5066301;28;20068;-83
2024/03/21 03:28:35;;;;;;;10.60;7.57;;;11.10;99.90;;;;;;5068454;28;20072;-84
2024/03/21 03:31:00;;;;;;;9.00;7.70;;;11.00;99.90;;;;;;5071912;28;20033;-84
2024/03/21 03:36:10;;;;;;;8.43;7.00;;;10.90;99.90;;;;;;5072232;28;20051;-84
2024/03/21 03:38:36;;;;;;;8.73;5.55;;;10.80;99.90;;;;;;5071229;28;20017;-83
2024/03/21 03:41:02;;;;;;;6.90;5.90;;;10.80;99.90;;;;;;5071648;28;20024;-83
2024/03/21 03:43:27;;;;;;;7.35;5.28;;;10.60;99.90;;;;;;5077655;28;20051;-83
2024/03/21 03:45:53;;;;;;;8.18;4.93;;;10.60;99.90;;;;;;5091212;28;20044;-84
2024/03/21 03:48:18;;;;;;;5.30;3.78;;;10.50;99.90;;;;;;5071667;28;20012;-83
2024/03/21 03:50:44;;;;;;;5.20;4.55;;;10.50;99.90;;;;;;5071997;28;20394;-83
2024/03/21 03:53:09;;;;;;;8.23;4.10;;;10.50;99.90;;;;;;5068860;28;20515;-83
2024/03/21 03:55:35;;;;;;;5.20;4.32;;;10.50;99.90;;;;;;5069000;28;20025;-84
2024/03/21 03:58:00;;;;;;;7.90;4.85;;;10.40;99.90;;;;;;5067103;28;20028;-83
2024/03/21 04:00:26;;;;;;;7.93;5.55;;;10.40;99.90;;;;;;5070419;28;20031;-83
2024/03/21 04:02:52;;;;;;;6.60;5.57;;;10.30;99.90;;;;;;5071278;28;20021;-83
2024/03/21 04:05:18;;;;;;;5.95;5.25;;;10.30;99.90;;;;;;5071692;28;20029;-84
2024/03/21 04:07:46;;;;;;;8.63;5.93;;;10.30;99.90;;;;;;5070361;28;20062;-82
2024/03/21 04:10:12;;;;;;;7.28;5.88;;;10.20;99.90;;;;;;5068681;28;20127;-83
2024/03/21 04:12:41;;;;;;;12.00;6.55;;;10.30;99.90;;;;;;5071491;28;20074;-83
2024/03/21 04:15:07;;;;;;;9.63;6.20;;;10.30;99.90;;;;;;5071878;28;20074;-83
2024/03/21 04:17:33;;;;;;;6.85;6.18;;;10.20;99.90;;;;;;5070139;28;20017;-83
2024/03/21 04:19:58;;;;;;;15.52;6.65;;;10.20;99.90;;;;;;5067310;28;20035;-83
2024/03/21 04:22:24;;;;;;;9.32;6.40;;;10.20;99.90;;;;;;5066129;28;20058;-84
2024/03/21 04:24:50;;;;;;;9.60;6.68;;;10.20;99.90;;;;;;5067599;28;20107;-83
2024/03/21 04:27:16;;;;;;;13.27;7.50;;;10.20;99.90;;;;;;5066778;28;20055;-83
2024/03/21 04:29:42;;;;;;;13.07;8.00;;;10.40;99.90;;;;;;5065850;28;20472;-84
2024/03/21 04:32:15;;;;;;;16.15;7.85;;;10.20;99.90;;;;;;5071562;28;20041;-84
2024/03/21 04:34:41;;;;;;;13.40;8.02;;;10.10;99.90;;;;;;5066510;28;20033;-84
2024/03/21 04:37:16;;;;;;;16.52;8.93;;;10.00;99.90;;;;;;5066351;28;20024;-83
2024/03/21 04:39:46;;;;;;;13.90;10.02;;;10.00;99.90;;;;;;5064421;28;20058;-82
2024/03/21 04:42:15;;;;;;;18.23;11.27;;;10.00;99.90;;;;;;5064668;28;20443;-83
2024/03/21 04:44:42;;;;;;;15.70;11.05;;;10.00;99.90;;;;;;5067245;28;20111;-83
2024/03/21 04:47:08;;;;;;;11.30;10.13;;;10.10;99.90;;;;;;5074507;28;20088;-83
2024/03/21 04:49:33;;;;;;;13.95;10.30;;;10.00;99.90;;;;;;5068149;28;20108;-83
2024/03/21 04:51:59;;;;;;;14.93;12.18;;;10.00;99.90;;;;;;5065878;28;20083;-83
2024/03/21 04:54:24;;;;;;;18.52;14.05;;;10.00;99.90;;;;;;5068691;28;20345;-83
2024/03/21 04:56:50;;;;;;;15.20;13.52;;;10.00;99.90;;;;;;5071237;28;20029;-83
2024/03/21 04:59:16;;;;;;;16.05;13.18;;;10.00;99.90;;;;;;5068601;28;20094;-83
2024/03/21 05:01:41;;;;;;;16.27;13.77;;;10.00;99.90;;;;;;5057298;28;20067;-83
2024/03/21 05:04:07;;;;;;;16.23;13.25;;;10.00;99.90;;;;;;5060635;28;20115;-83
2024/03/21 05:06:32;;;;;;;14.30;11.68;;;10.00;99.90;;;;;;5067521;28;20090;-83
2024/03/21 05:08:58;;;;;;;14.13;10.95;;;10.00;99.90;;;;;;5079047;28;20021;-83
2024/03/21 05:11:24;;;;;;;17.63;10.60;;;10.00;99.90;;;;;;5075523;28;20028;-83
2024/03/21 05:13:51;;;;;;;18.80;9.02;;;10.00;99.90;;;;;;5079658;28;20024;-83
2024/03/21 05:16:17;;;;;;;16.45;9.45;;;10.00;99.90;;;;;;5095044;28;20045;-83
2024/03/21 05:18:42;;;;;;;10.88;8.32;;;10.00;99.90;;;;;;5094323;28;20428;-83
2024/03/21 05:21:11;;;;;;;15.70;9.68;;;10.00;99.90;;;;;;5095211;28;20039;-83
2024/03/21 05:23:37;;;;;;;13.55;8.80;;;10.00;99.90;;;;;;5075886;28;20174;-83
2024/03/21 05:26:03;;;;;;;12.63;7.88;;;10.00;99.90;;;;;;5072756;28;20518;-84
2024/03/21 05:28:28;;;;;;;14.45;8.05;;;10.50;99.90;;;;;;5070532;28;20386;-83
2024/03/21 05:30:54;;;;;;;11.93;8.15;;;10.00;99.90;;;;;;5073629;28;20060;-84
2024/03/21 05:33:20;;;;;;;18.60;9.52;;;10.00;99.90;;;;;;5072769;28;20029;-82
2024/03/21 05:35:45;;;;;;;16.63;10.85;;;10.00;99.90;;;;;;5070974;28;20107;-83
2024/03/21 05:38:11;;;;;;;21.20;17.58;;;10.00;99.90;;;;;;5068573;28;20037;-83
2024/03/21 05:40:39;;;;;;;19.85;16.42;;;10.00;99.90;;;;;;5073085;28;20033;-83
2024/03/21 05:43:07;;;;;;;20.92;13.43;;;10.00;99.90;;;;;;5070512;28;20036;-84
2024/03/21 05:45:35;;;;;;;15.95;11.90;;;10.00;99.90;;;;;;5069438;28;20043;-83
2024/03/21 05:48:01;;;;;;;21.58;13.02;;;10.00;99.90;;;;;;5078164;28;20035;-82
2024/03/21 05:50:27;;;;;;;18.13;13.05;;;10.00;99.90;;;;;;5079103;28;20047;-83
2024/03/21 05:52:52;;;;;;;18.58;12.48;;;10.00;99.90;;;;;;5080451;28;20036;-83
2024/03/21 05:55:18;;;;;;;20.38;12.13;;;10.00;99.90;;;;;;5073709;28;20031;-84
2024/03/21 05:57:44;;;;;;;17.38;10.50;;;10.10;99.90;;;;;;5074303;28;20108;-83
2024/03/21 06:00:13;;;;;;;16.33;9.20;;;10.10;99.90;;;;;;5074104;28;20468;-83
2024/03/21 06:02:40;;;;;;;13.98;8.60;;;10.10;99.90;;;;;;5072906;28;20032;-83
2024/03/21 06:05:06;;;;;;;15.40;9.52;;;10.00;99.90;;;;;;5065791;28;20448;-83
2024/03/21 06:07:32;;;;;;;12.40;8.07;;;10.00;99.90;;;;;;5064383;28;20040;-83
2024/03/21 06:09:58;;;;;;;9.98;8.20;;;10.00;99.90;;;;;;5072575;28;20028;-84
2024/03/21 06:12:24;;;;;;;12.63;7.50;;;10.00;99.90;;;;;;5073645;28;20438;-83
2024/03/21 06:14:49;;;;;;;12.55;7.32;;;10.10;99.90;;;;;;5073301;28;20020;-83
2024/03/21 06:17:15;;;;;;;15.93;9.25;;;9.90;99.90;;;;;;5073540;28;20100;-84
2024/03/21 06:19:40;;;;;;;18.70;8.57;;;9.90;99.90;;;;;;5072462;28;20511;-84
2024/03/21 06:22:06;;;;;;;13.48;8.63;;;9.90;99.90;;;;;;5072728;28;20499;-83
2024/03/21 06:24:32;;;;;;;17.48;9.70;;;9.80;99.90;;;;;;5074482;28;20476;-85
2024/03/21 06:26:59;;;;;;;15.65;9.20;;;9.90;99.90;;;;;;5073897;28;20040;-85
2024/03/21 06:29:28;;;;;;;16.67;10.40;;;9.80;99.90;;;;;;5077609;28;20111;-85
2024/03/21 06:31:53;;;;;;;16.70;9.60;;;9.80;99.90;;;;;;5073207;28;20031;-84
2024/03/21 06:34:19;;;;;;;9.60;7.88;;;9.80;99.90;;;;;;5073870;28;20028;-83
2024/03/21 06:36:45;;;;;;;11.40;7.25;;;9.80;99.90;;;;;;5073511;28;20056;-84
2024/03/21 06:39:13;;;;;;;15.13;6.30;;;9.80;99.90;;;;;;5072308;28;20056;-83
2024/03/21 06:41:42;;;;;;;9.70;5.43;;;9.80;99.90;;;;;;5073134;28;20043;-83
2024/03/21 06:44:11;;;;;;;10.02;3.95;;;9.80;99.90;;;;;;5054503;28;20037;-84
2024/03/21 06:46:38;;;;;;;5.43;3.47;;;9.80;99.90;;;;;;5073304;28;20423;-83
2024/03/21 06:49:05;;;;;;;9.60;3.28;;;9.80;99.90;;;;;;5072723;28;20051;-82
2024/03/21 06:51:30;;;;;;;10.20;3.58;;;9.80;99.90;;;;;;5073077;28;20033;-84
2024/03/21 06:53:56;;;;;;;13.98;2.92;;;9.90;99.90;;;;;;5057774;28;20036;-84
2024/03/21 06:56:21;;;;;;;8.35;2.22;;;9.90;99.90;;;;;;5053029;28;20476;-84
2024/03/21 06:58:47;;;;;;;10.68;2.85;;;9.90;99.90;;;;;;5070653;28;20028;-84
2024/03/21 07:01:13;;;;;;;10.70;2.95;;;9.90;99.90;;;;;;5072336;28;20036;-84
2024/03/21 07:03:39;;;;;;;15.20;2.97;;;9.90;99.90;;;;;;5064884;28;20112;-84
2024/03/21 07:06:05;;;;;;;5.65;1.90;;;9.80;99.90;;;;;;5057785;28;20080;-84
2024/03/21 07:08:30;;;;;;;5.60;2.05;;;9.80;99.90;;;;;;5061344;28;20059;-84
2024/03/21 07:10:56;;;;;;;9.10;2.30;;;9.80;99.90;;;;;;5059158;28;20044;-85
2024/03/21 07:13:22;;;;;;;11.05;2.15;;;9.80;99.90;;;;;;5069605;28;20077;-83
2024/03/21 07:15:47;;;;;;;3.22;1.50;;;9.80;99.90;;;;;;5071407;28;20020;-84
2024/03/21 07:18:13;;;;;;;6.47;3.10;;;9.70;99.90;;;;;;5056527;28;20055;-84
2024/03/21 07:20:40;;;;;;;9.18;2.33;;;9.80;99.90;;;;;;5071529;28;20052;-83
2024/03/21 07:23:06;;;;;;;7.40;2.03;;;9.80;99.90;;;;;;5072654;28;20031;-84
2024/03/21 07:25:35;;;;;;;5.72;1.90;;;9.80;99.90;;;;;;5072092;28;20028;-84
2024/03/21 07:28:00;;;;;;;2.58;1.80;;;9.80;99.90;;;;;;5074299;28;20129;-84
2024/03/21 07:30:26;;;;;;;5.53;2.22;;;9.90;99.90;;;;;;5065932;28;20158;-83
2024/03/21 07:32:52;;;;;;;6.57;2.22;;;9.90;99.90;;;;;;5056461;28;20025;-85
2024/03/21 07:35:17;;;;;;;9.48;2.42;;;9.90;99.90;;;;;;5051157;28;20029;-84
2024/03/21 07:37:43;;;;;;;8.65;1.70;;;9.90;99.90;;;;;;5068570;28;20551;-85
2024/03/21 07:40:09;;;;;;;4.38;2.30;;;9.90;99.90;;;;;;5072154;28;20017;-85
2024/03/21 07:42:35;;;;;;;10.48;2.05;;;9.90;99.90;;;;;;5073104;28;20047;-86
2024/03/21 07:45:03;;;;;;;2.80;2.03;;;9.90;99.90;;;;;;5071996;28;20028;-84
2024/03/21 07:47:29;;;;;;;3.13;1.90;;;10.00;99.90;;;;;;5073760;28;20124;-85
2024/03/21 07:49:54;;;;;;;5.18;1.95;;;9.90;99.90;;;;;;5091858;28;20055;-85
2024/03/21 07:52:20;;;;;;;7.20;1.52;;;10.00;99.90;;;;;;5091782;28;20466;-86
2024/03/21 07:54:46;;;;;;;7.38;1.63;;;10.00;99.90;;;;;;5070926;28;20033;-86
2024/03/21 07:57:12;;;;;;;8.05;2.10;;;10.00;99.90;;;;;;5073874;28;20055;-86
2024/03/21 07:59:38;;;;;;;9.25;2.47;;;10.00;99.90;;;;;;5072781;28;20025;-84
2024/03/21 08:02:04;;;;;;;7.28;2.25;;;10.10;99.90;;;;;;5067901;28;20024;-86
2024/03/21 08:04:29;;;;;;;6.68;2.58;;;10.10;99.90;;;;;;5071604;28;20033;-87
2024/03/21 08:06:57;;;;;;;5.10;2.35;;;10.10;99.90;;;;;;5068680;28;20626;-87
2024/03/21 08:09:23;;;;;;;8.50;2.30;;;10.20;99.90;;;;;;5070198;28;20032;-86
2024/03/21 08:11:49;;;;;;;8.90;3.13;;;10.20;99.90;;;;;;5066613;28;20028;-85
2024/03/21 08:14:14;;;;;;;7.43;3.08;;;10.20;99.90;;;;;;5052514;28;20029;-84
2024/03/21 08:16:43;;;;;;;8.43;2.72;;;10.30;99.90;;;;;;5061649;28;20041;-89
2024/03/21 08:19:09;;;;;;;10.20;2.50;;;10.30;99.90;;;;;;5072223;28;20017;-90
2024/03/21 08:21:34;;;;;;;4.30;3.20;;;10.90;99.90;;;;;;5071605;28;20081;-90
2024/03/21 08:24:00;;;;;;;5.20;2.65;;;10.40;99.90;;;;;;5065877;28;20202;-89
2024/03/21 08:26:25;;;;;;;8.60;3.08;;;10.40;99.90;;;;;;5062958;28;20040;-87
2024/03/21 08:28:51;;;;;;;8.80;2.88;;;10.40;99.90;;;;;;5075332;28;20040;-91
2024/03/21 08:31:16;;;;;;;12.68;3.42;;;11.20;99.90;;;;;;5082279;28;20053;-87
2024/03/21 08:33:42;;;;;;;18.85;3.72;;;10.40;99.90;;;;;;5091808;28;20028;-89
2024/03/21 08:36:08;;;;;;;8.13;3.63;;;10.50;99.90;;;;;;5095350;28;20037;-89
2024/03/21 08:38:33;;;;;;;6.28;3.15;;;11.00;99.90;;;;;;5093417;28;20067;-89
2024/03/21 08:40:59;;;;;;;5.97;3.70;;;10.50;99.90;;;;;;5079106;28;20380;-88
2024/03/21 08:43:25;;;;;;;6.28;3.28;;;10.50;99.90;;;;;;5079518;28;20024;-88
2024/03/21 08:45:53;;;;;;;7.60;3.50;;;10.50;99.90;;;;;;5059413;28;20043;-89
2024/03/21 08:48:18;;;;;;;11.82;4.05;;;10.50;99.90;;;;;;5077765;28;20025;-87
2024/03/21 08:50:45;;;;;;;13.10;3.47;;;10.50;99.90;;;;;;5077774;28;20048;-88
2024/03/21 08:53:11;;;;;;;5.88;3.72;;;10.40;99.90;;;;;;5078500;28;20028;-89
2024/03/21 08:55:37;;;;;;;10.10;4.30;;;10.40;99.90;;;;;;5077212;28;20107;-89
2024/03/21 08:58:05;;;;;;;8.90;3.60;;;10.30;99.90;;;;;;5076769;28;20066;-89
2024/03/21 09:00:32;;;;;;;11.63;4.80;;;10.30;99.90;;;;;;5082268;28;20032;-89
2024/03/21 09:03:01;;;;;;;8.40;4.15;;;10.30;99.90;;;;;;5097558;28;20069;-88
2024/03/21 09:05:27;;;;;;;7.75;3.97;;;10.30;99.90;;;;;;5097148;28;20034;-90
2024/03/21 09:07:56;;;;;;;5.15;4.57;;;10.20;99.90;;;;;;5081549;28;20040;-90
2024/03/21 09:10:22;;;;;;;7.60;5.30;;;10.20;99.90;;;;;;5078391;28;20017;-88
2024/03/21 09:12:48;;;;;;;10.63;6.25;;;10.20;99.90;;;;;;5076439;28;20027;-89
2024/03/21 09:15:16;;;;;;;15.23;6.95;;;10.30;99.90;;;;;;5077647;28;20073;-89
2024/03/21 09:17:41;;;;;;;11.63;6.82;;;10.30;99.90;;;;;;5076670;28;20025;-90
2024/03/21 09:20:07;;;;;;;8.52;6.72;;;10.30;99.90;;;;;;5076213;28;20027;-89
2024/03/21 09:22:34;;;;;;;11.32;7.10;;;10.30;99.90;;;;;;5076693;28;20777;-88
2024/03/21 09:25:00;;;;;;;11.38;7.95;;;10.40;99.90;;;;;;5082321;28;20016;-90
2024/03/21 09:27:25;;;;;;;12.50;8.52;;;10.40;99.90;;;;;;5096354;28;20028;-89
2024/03/21 09:29:51;;;;;;;15.45;7.88;;;10.40;99.90;;;;;;5076688;28;20048;-90
2024/03/21 09:32:17;;;;;;;12.35;8.60;;;10.40;99.90;;;;;;5076323;28;20032;-88
2024/03/21 09:34:47;;;;;;;11.20;8.30;;;10.40;99.90;;;;;;5076636;28;20020;-90
2024/03/21 09:37:13;;;;;;;13.48;7.35;;;10.50;99.90;;;;;;5076541;28;20017;-89
2024/03/21 09:39:38;;;;;;;17.05;8.13;;;10.50;99.90;;;;;;5075508;28;20460;-90
2024/03/21 09:42:05;;;;;;;14.13;8.65;;;10.40;99.90;;;;;;5095175;28;20116;-89
2024/03/21 09:44:31;;;;;;;8.98;8.07;;;10.10;99.90;;;;;;5096642;28;20028;-88
2024/03/21 09:47:00;;;;;;;13.40;9.60;;;10.40;99.90;;;;;;5081432;28;20040;-89
2024/03/21 09:49:25;;;;;;;10.63;8.88;;;10.40;99.90;;;;;;5075782;28;20055;-89
2024/03/21 09:51:51;;;;;;;16.95;12.15;;;10.40;99.90;;;;;;5074651;28;20056;-89
2024/03/21 09:54:17;;;;;;;18.70;13.10;;;11.10;99.90;;;;;;5074953;28;20161;-88
2024/03/21 09:56:43;;;;;;;17.10;14.40;;;10.40;99.90;;;;;;5075910;28;20476;-89
2024/03/21 09:59:15;;;;;;;16.50;13.82;;;10.40;99.90;;;;;;5076150;28;20020;-88
2024/03/21 10:01:41;;;;;;;21.58;13.35;;;10.40;99.90;;;;;;5075955;28;20028;-89
2024/03/21 10:04:10;;;;;;;22.85;14.85;;;10.40;99.90;;;;;;5075708;28;20483;-89
2024/03/21 10:06:43;;;;;;;13.57;10.55;;;10.50;99.90;;;;;;5075321;28;20045;-89
2024/03/21 10:09:08;;;;;;;13.80;10.32;;;10.40;99.90;;;;;;5075601;28;20020;-88
2024/03/21 10:11:35;;;;;;;11.05;9.60;;;10.20;99.90;;;;;;5075112;28;20143;-89
2024/03/21 10:14:00;;;;;;;13.02;9.15;;;10.40;99.90;;;;;;5075721;28;20101;-87
2024/03/21 10:16:28;;;;;;;11.98;7.68;;;10.40;99.90;;;;;;5096539;28;20032;-87
2024/03/21 10:18:54;;;;;;;15.90;9.65;;;10.40;99.90;;;;;;5097676;28;20029;-90
2024/03/21 10:21:22;;;;;;;11.63;5.07;;;10.40;99.90;;;;;;5076348;28;20460;-88
2024/03/21 10:23:47;;;;;;;10.95;4.50;;;10.40;99.90;;;;;;5075574;28;20024;-87
2024/03/21 10:26:15;;;;;;;6.50;3.10;;;10.50;99.90;;;;;;5076313;28;20123;-88
2024/03/21 10:28:44;;;;;;;14.82;4.28;;;10.40;99.90;;;;;;5078474;28;20044;-89
2024/03/21 10:31:15;;;;;;;11.88;3.65;;;10.40;99.90;;;;;;5076308;28;20056;-88
2024/03/21 10:33:44;;;;;;;8.60;3.38;;;10.10;99.90;;;;;;5075103;28;20105;-88
2024/03/21 10:36:12;;;;;;;11.90;3.67;;;10.40;99.90;;;;;;5088330;28;20035;-87
2024/03/21 10:38:37;;;;;;;13.57;3.65;;;10.40;99.90;;;;;;5080386;28;20094;-87
2024/03/21 10:41:27;;;;;;;7.30;2.15;;;10.40;99.90;;;;;;5086883;28;20464;-90
2024/03/21 10:43:56;;;;;;;7.47;2.20;;;10.40;99.90;;;;;;5095367;28;20074;-91
2024/03/21 10:46:23;;;;;;;8.90;2.35;;;10.40;99.90;;;;;;5086721;28;20053;-90
2024/03/21 10:48:49;;;;;;;5.82;2.10;;;10.40;99.90;;;;;;5074969;28;20025;-88
2024/03/21 10:51:21;;;;;;;7.65;2.05;;;10.40;99.90;;;;;;5075211;28;20031;-90
2024/03/21 10:54:02;;;;;;;5.80;2.30;;;10.40;99.90;;;;;;5074960;28;20031;-87
2024/03/21 10:56:30;;;;;;;;;;;10.50;99.90;;;;;;5075359;28;20028;-87
2024/03/21 10:58:57;;;;;;;10.70;2.85;;;10.50;99.90;;;;;;5074133;28;19908;-88
2024/03/21 11:01:40;;;;;;;9.40;2.53;;;10.50;99.90;;;;;;5074616;28;20052;-87
2024/03/21 11:04:11;;;;;;;5.30;1.92;;;10.50;99.90;;;;;;5054929;28;20036;-88
2024/03/21 11:06:41;;;;;;;6.15;2.10;;;10.60;99.90;;;;;;5063331;28;20112;-88
2024/03/21 11:09:09;;;;;;;10.23;2.15;;;10.60;99.90;;;;;;5075074;28;20024;-91
2024/03/21 11:11:35;;;;;;;5.47;2.13;;;10.60;99.90;;;;;;5074536;28;20028;-88
2024/03/21 11:14:04;;;;;;;6.13;2.28;;;10.60;99.90;;;;;;5074544;28;20028;-89
2024/03/21 11:16:30;;;;;;;7.13;2.45;;;10.70;99.90;;;;;;5066656;28;20029;-86
2024/03/21 11:18:57;;;;;;;10.02;2.35;;;10.70;99.90;;;;;;5068581;28;20650;-87
2024/03/21 11:21:23;;;;;;;7.72;2.10;;;10.60;99.90;;;;;;5058335;28;20029;-90
2024/03/21 11:23:49;;;;;;;12.45;3.25;;;10.60;99.90;;;;;;5062318;28;20084;-93
2024/03/21 11:26:16;;;;;;;5.68;2.00;;;10.70;99.90;;;;;;5072706;28;20040;-95
2024/03/21 11:28:42;;;;;;;4.80;2.55;;;10.70;99.90;;;;;;5076115;28;20087;-92
2024/03/21 11:31:34;;;;;;;9.68;2.50;;;10.70;99.90;;;;;;5075587;28;20109;-93
2024/03/21 11:34:00;;;;;;;14.80;2.10;;;10.70;99.90;;;;;;5071804;28;20037;-90
2024/03/21 11:36:27;;;;;;;8.57;2.25;;;10.80;99.90;;;;;;5076497;28;20116;-94
2024/03/21 11:38:53;;;;;;;5.40;2.28;;;10.80;99.90;;;;;;5089604;28;20115;-93
2024/03/21 11:41:20;;;;;;;5.43;2.00;;;10.80;99.90;;;;;;5079389;28;20025;-94
2024/03/21 11:43:51;;;;;;;5.75;2.13;;;10.80;99.90;;;;;;5084387;28;20039;-93
2024/03/21 11:46:19;;;;;;;;;;;10.70;99.90;;;;;;5078768;28;20036;-94
2024/03/21 11:49:00;;;;;;;2.78;1.55;;;11.30;99.90;;;;;;5077137;28;19905;-94
2024/03/21 11:51:26;;;;;;;7.18;2.03;;;10.70;99.90;;;;;;5076835;28;20028;-89
2024/03/21 11:53:51;;;;;;;3.72;1.50;;;10.70;99.90;;;;;;5076095;28;20020;-89
2024/03/21 11:56:17;;;;;;;6.57;2.00;;;10.60;99.90;;;;;;5077694;28;20541;-91
2024/03/21 11:58:42;;;;;;;4.25;1.85;;;10.70;99.90;;;;;;5080622;28;20036;-90
2024/03/21 12:01:08;;;;;;;4.80;1.52;;;10.70;99.90;;;;;;5081490;28;20077;-89
2024/03/21 12:03:34;;;;;;;3.03;1.65;;;10.80;99.90;;;;;;5085148;28;20033;-89
2024/03/21 12:06:00;;;;;;;4.88;2.25;;;10.80;99.90;;;;;;5075325;28;20043;-90
2024/03/21 12:08:25;;;;;;;5.60;1.75;;;10.80;99.90;;;;;;5074334;28;20027;-89
2024/03/21 12:10:51;;;;;;;6.70;2.28;;;10.80;99.90;;;;;;5074699;28;20043;-89
2024/03/21 12:13:17;;;;;;;8.23;2.45;;;10.90;99.90;;;;;;5074859;28;20032;-90
2024/03/21 12:15:43;;;;;;;8.18;2.05;;;10.90;99.90;;;;;;5078676;28;20031;-89
2024/03/21 12:18:08;;;;;;;7.30;2.10;;;11.00;99.90;;;;;;5079522;28;20028;-89
2024/03/21 12:20:34;;;;;;;6.18;2.72;;;10.90;99.90;;;;;;5076341;28;20036;-90
2024/03/21 12:22:59;;;;;;;3.45;1.95;;;11.00;99.90;;;;;;5075636;28;20017;-92
2024/03/21 12:25:25;;;;;;;6.20;2.50;;;10.90;99.90;;;;;;5075019;28;20039;-91
2024/03/21 12:27:52;;;;;;;5.28;2.58;;;10.90;99.90;;;;;;5074530;28;20076;-89
2024/03/21 12:30:18;;;;;;;7.22;2.85;;;10.90;99.90;;;;;;5074579;28;20045;-91
2024/03/21 12:32:43;;;;;;;6.90;2.70;;;10.90;99.90;;;;;;5074889;28;20051;-89
2024/03/21 12:35:10;;;;;;;8.02;2.75;;;10.90;99.90;;;;;;5073449;28;20025;-89
2024/03/21 12:37:40;;;;;;;6.63;2.55;;;10.90;99.90;;;;;;5074078;28;20412;-89